Terminal Aerodrome Forecast
Issued by NWS

Home | Current Version | Previous Version | Text Only | Print | Product List | Glossary On
Versions: 1 2 3 4 5 6 7 8 9 10 11 12
000
FTUS46 KOTX 251734
TAFSFF
TAF
KSFF 251734Z 2518/2618 21004KT P6SM SCT090 BKN150
     FM260200 VRB02KT P6SM BKN150
     FM260600 VRB02KT P6SM FEW070 SCT120 BKN200
     FM261400 VRB02KT P6SM SCT070 SCT120=

USA.gov is the U.S. government's official web portal to all federal, state and local government web resources and services.